createdAt,value
2022-09-12T00:01:28.629Z,14.38
2022-09-12T00:03:59.825Z,14.41
2022-09-12T00:06:34.120Z,14.44
2022-09-12T00:09:06.732Z,14.45
2022-09-12T00:11:39.633Z,14.45
2022-09-12T00:14:09.831Z,14.45
2022-09-12T00:16:38.349Z,14.45
2022-09-12T00:19:07.507Z,14.46
2022-09-12T00:21:38.196Z,14.48
2022-09-12T00:24:06.683Z,14.50
2022-09-12T00:26:34.945Z,14.51
2022-09-12T00:29:03.739Z,14.51
2022-09-12T00:31:32.282Z,14.49
2022-09-12T00:34:01.738Z,14.49
2022-09-12T00:36:30.551Z,14.48
2022-09-12T00:38:59.757Z,14.47
2022-09-12T00:41:31.566Z,14.48
2022-09-12T00:44:02.918Z,14.50
2022-09-12T00:46:40.230Z,14.51
2022-09-12T00:49:22.409Z,14.51
2022-09-12T00:51:56.408Z,14.50
2022-09-12T00:54:28.619Z,14.50
2022-09-12T00:57:01.711Z,14.49
2022-09-12T00:59:34.881Z,14.50
2022-09-12T01:02:04.183Z,14.50
2022-09-12T01:04:32.875Z,14.51
2022-09-12T01:07:00.973Z,14.51
2022-09-12T01:09:29.135Z,14.51
2022-09-12T01:11:57.488Z,14.50
2022-09-12T01:14:25.634Z,14.49
2022-09-12T01:16:53.951Z,14.50
2022-09-12T01:20:15.717Z,14.51
2022-09-12T01:23:13.084Z,14.54
2022-09-12T01:26:02.408Z,14.55
2022-09-12T01:29:00.461Z,14.56
2022-09-12T01:31:37.845Z,14.54
2022-09-12T01:34:32.633Z,14.53
2022-09-12T01:37:21.925Z,14.54
2022-09-12T01:40:02.471Z,14.53
2022-09-12T01:42:30.456Z,14.54
2022-09-12T01:45:07.681Z,14.53
2022-09-12T01:47:50.296Z,14.52
2022-09-12T01:50:23.230Z,14.50
2022-09-12T01:52:54.098Z,14.49
2022-09-12T01:55:44.243Z,14.49
2022-09-12T01:58:23.811Z,14.51
2022-09-12T02:01:04.210Z,14.51
2022-09-12T02:03:44.836Z,14.52
2022-09-12T02:06:22.679Z,14.53
2022-09-12T02:08:55.024Z,14.51
2022-09-12T02:11:23.237Z,14.50
2022-09-12T02:14:01.136Z,14.48
2022-09-12T02:16:35.257Z,14.50
2022-09-12T02:19:24.810Z,14.51
2022-09-12T02:21:59.946Z,14.51
2022-09-12T02:24:36.724Z,14.52
2022-09-12T02:27:34.331Z,14.52
2022-09-12T02:30:02.612Z,14.52
2022-09-12T02:32:48.463Z,14.51
2022-09-12T02:35:44.007Z,14.52
2022-09-12T02:38:15.867Z,14.51
2022-09-12T02:40:44.487Z,14.53
2022-09-12T02:43:12.705Z,14.55
2022-09-12T02:45:41.191Z,14.58
2022-09-12T02:48:24.121Z,14.59
2022-09-12T02:50:52.602Z,14.59
2022-09-12T02:53:21.319Z,14.58
2022-09-12T02:55:50.284Z,14.59
2022-09-12T02:58:24.860Z,14.60
2022-09-12T03:01:07.827Z,14.62
2022-09-12T03:03:48.287Z,14.63
2022-09-12T03:06:35.578Z,14.64
2022-09-12T03:09:10.510Z,14.62
2022-09-12T03:11:47.403Z,14.61
2022-09-12T03:14:31.999Z,14.62
2022-09-12T03:17:44.352Z,14.64
2022-09-12T03:20:18.190Z,14.67
2022-09-12T03:22:59.418Z,14.67
2022-09-12T03:25:36.239Z,14.68
2022-09-12T03:28:08.551Z,14.64
2022-09-12T03:30:56.628Z,14.56
2022-09-12T03:33:25.879Z,14.47
2022-09-12T03:35:55.602Z,14.44
2022-09-12T03:38:23.742Z,14.43
2022-09-12T03:40:54.810Z,14.42
2022-09-12T03:43:23.724Z,14.43
2022-09-12T03:45:54.773Z,14.47
2022-09-12T03:48:22.875Z,14.51
2022-09-12T03:50:51.202Z,14.53
2022-09-12T03:53:19.293Z,14.55
2022-09-12T03:55:47.304Z,14.54
2022-09-12T03:58:15.537Z,14.54
2022-09-12T04:00:44.409Z,14.53
2022-09-12T04:03:12.534Z,14.56
2022-09-12T04:05:40.711Z,14.59
2022-09-12T04:08:08.783Z,14.60
2022-09-12T04:10:37.015Z,14.60
2022-09-12T04:13:05.148Z,14.60
2022-09-12T04:15:33.208Z,14.58
2022-09-12T04:18:05.568Z,14.57
2022-09-12T04:20:34.215Z,14.57
2022-09-12T04:23:02.334Z,14.56
2022-09-12T04:25:31.487Z,14.56
2022-09-12T04:27:59.640Z,14.57
2022-09-12T04:30:27.839Z,14.58
2022-09-12T04:32:57.490Z,14.59
2022-09-12T04:35:27.754Z,14.58
2022-09-12T04:37:55.846Z,14.60
2022-09-12T04:40:24.139Z,14.61
2022-09-12T04:42:52.277Z,14.61
2022-09-12T04:45:20.384Z,14.64
2022-09-12T04:47:48.717Z,14.66
2022-09-12T04:50:17.202Z,14.66
2022-09-12T04:52:53.543Z,14.68
2022-09-12T04:55:23.119Z,14.66
2022-09-12T04:57:52.134Z,14.66
2022-09-12T05:00:20.686Z,14.66
2022-09-12T05:02:49.356Z,14.67
2022-09-12T05:05:17.607Z,14.69
2022-09-12T05:07:45.699Z,14.70
2022-09-12T05:10:13.888Z,14.73
2022-09-12T05:12:42.060Z,14.75
2022-09-12T05:15:10.445Z,14.77
2022-09-12T05:17:38.623Z,14.77
2022-09-12T05:20:08.030Z,14.79
2022-09-12T05:22:36.077Z,14.80
2022-09-12T05:25:05.886Z,14.81
2022-09-12T05:27:33.862Z,14.83
2022-09-12T05:30:01.923Z,14.85
2022-09-12T05:32:32.557Z,14.88
2022-09-12T05:35:00.662Z,14.90
2022-09-12T05:37:28.976Z,14.91
2022-09-12T05:39:59.350Z,14.90
2022-09-12T05:42:30.184Z,14.88
2022-09-12T05:44:58.706Z,14.88
2022-09-12T05:47:26.799Z,14.88
2022-09-12T05:49:54.928Z,14.89
2022-09-12T05:52:23.133Z,14.91
2022-09-12T05:54:51.334Z,14.91
2022-09-12T05:57:19.574Z,14.93
2022-09-12T05:59:48.876Z,14.93
2022-09-12T06:02:17.196Z,14.94
2022-09-12T06:04:55.483Z,14.95
2022-09-12T06:07:24.180Z,14.96
2022-09-12T06:09:52.264Z,14.98
2022-09-12T06:12:20.322Z,15.01
2022-09-12T06:14:48.447Z,15.03
2022-09-12T06:17:16.641Z,15.04
2022-09-12T06:19:45.748Z,15.06
2022-09-12T06:22:14.116Z,15.09
2022-09-12T06:24:42.194Z,15.11
2022-09-12T06:27:10.231Z,15.14
2022-09-12T06:29:38.436Z,15.18
2022-09-12T06:32:07.348Z,15.21
2022-09-12T06:34:36.598Z,15.28
2022-09-12T06:37:04.859Z,15.32
2022-09-12T06:39:33.295Z,15.36
2022-09-12T06:42:01.362Z,15.40
2022-09-12T06:44:29.990Z,15.44
2022-09-12T06:46:58.848Z,15.49
2022-09-12T06:49:26.946Z,15.55
2022-09-12T06:51:55.089Z,15.61
2022-09-12T06:54:23.609Z,15.67
2022-09-12T06:56:51.703Z,15.72
2022-09-12T06:59:20.238Z,15.77
2022-09-12T07:01:48.506Z,15.81
2022-09-12T07:04:16.725Z,15.85
2022-09-12T07:06:45.198Z,15.87
2022-09-12T07:09:17.957Z,15.90
2022-09-12T07:11:47.383Z,15.94
2022-09-12T07:14:15.666Z,15.99
2022-09-12T07:16:44.380Z,16.01
2022-09-12T07:19:12.878Z,16.03
2022-09-12T07:21:41.691Z,16.06
2022-09-12T07:24:11.038Z,16.09
2022-09-12T07:26:42.630Z,16.12
2022-09-12T07:29:36.094Z,16.17
2022-09-12T07:32:06.163Z,16.23
2022-09-12T07:34:35.929Z,16.29
2022-09-12T07:37:04.806Z,16.31
2022-09-12T07:39:32.985Z,16.34
2022-09-12T07:42:01.398Z,16.40
2022-09-12T07:44:31.254Z,16.46
2022-09-12T07:46:59.429Z,16.50
2022-09-12T07:49:27.577Z,16.56
2022-09-12T07:51:55.692Z,16.62
2022-09-12T07:54:24.281Z,16.74
2022-09-12T07:56:52.407Z,16.85
2022-09-12T07:59:41.460Z,16.90
2022-09-12T08:02:17.395Z,16.94
2022-09-12T08:04:49.670Z,16.98
2022-09-12T08:07:19.339Z,17.00
2022-09-12T08:09:47.678Z,17.03
2022-09-12T08:12:17.837Z,17.06
2022-09-12T08:14:46.637Z,17.06
2022-09-12T08:17:14.814Z,17.04
2022-09-12T08:19:43.776Z,17.08
2022-09-12T08:22:12.529Z,17.12
2022-09-12T08:24:40.833Z,17.17
2022-09-12T08:27:09.044Z,17.22
2022-09-12T08:29:37.415Z,17.25
2022-09-12T08:32:05.765Z,17.27
2022-09-12T08:34:33.896Z,17.29
2022-09-12T08:37:02.014Z,17.32
2022-09-12T08:39:30.147Z,17.36
2022-09-12T08:42:03.574Z,17.37
2022-09-12T08:44:38.974Z,17.37
2022-09-12T08:47:19.130Z,17.38
2022-09-12T08:49:53.019Z,17.42
2022-09-12T08:52:46.504Z,17.44
2022-09-12T08:55:31.208Z,17.43
2022-09-12T08:58:01.722Z,17.43
2022-09-12T09:01:00.186Z,17.42
2022-09-12T09:03:44.488Z,17.44
2022-09-12T09:06:31.080Z,17.42
2022-09-12T09:09:37.045Z,17.41
2022-09-12T09:12:17.045Z,17.42
2022-09-12T09:14:51.158Z,17.44
2022-09-12T09:17:20.302Z,17.47
2022-09-12T09:19:57.455Z,17.51
2022-09-12T09:22:42.012Z,17.52
2022-09-12T09:25:24.302Z,17.53
2022-09-12T09:27:57.347Z,17.52
2022-09-12T09:30:25.539Z,17.51
2022-09-12T09:32:58.954Z,17.52
2022-09-12T09:35:45.595Z,17.53
2022-09-12T09:39:04.031Z,17.53
2022-09-12T09:41:53.574Z,17.55
2022-09-12T09:44:22.043Z,17.63
2022-09-12T09:46:55.755Z,17.67
2022-09-12T09:49:27.045Z,17.70
2022-09-12T09:51:58.805Z,17.75
2022-09-12T09:54:37.141Z,17.82
2022-09-12T09:57:05.450Z,17.90
2022-09-12T09:59:34.248Z,17.98
2022-09-12T10:02:14.159Z,18.06
2022-09-12T10:04:55.353Z,18.11
2022-09-12T10:07:25.582Z,18.16
2022-09-12T10:10:17.315Z,18.18
2022-09-12T10:12:46.033Z,18.18
2022-09-12T10:15:28.147Z,18.23
2022-09-12T10:17:57.066Z,18.25
2022-09-12T10:20:44.343Z,18.28
2022-09-12T10:23:41.275Z,18.28
2022-09-12T10:26:14.790Z,18.23
2022-09-12T10:28:52.402Z,18.13
2022-09-12T10:31:29.181Z,18.10
2022-09-12T10:34:01.127Z,18.09
2022-09-12T10:36:38.561Z,18.07
2022-09-12T10:39:11.853Z,18.11
2022-09-12T10:41:41.685Z,18.14
2022-09-12T10:44:17.769Z,18.21
2022-09-12T10:46:45.952Z,18.29
2022-09-12T10:49:21.668Z,18.38
2022-09-12T10:51:50.953Z,18.44
2022-09-12T10:54:21.680Z,18.44
2022-09-12T10:57:17.188Z,18.48
2022-09-12T11:00:11.082Z,18.53
2022-09-12T11:02:57.692Z,18.54
2022-09-12T11:05:46.182Z,18.50
2022-09-12T11:08:32.884Z,18.46
2022-09-12T11:11:45.917Z,18.46
2022-09-12T11:14:40.344Z,18.45
2022-09-12T11:17:23.276Z,18.44
2022-09-12T11:20:12.444Z,18.41
2022-09-12T11:23:04.670Z,18.39
2022-09-12T11:26:04.447Z,18.42
2022-09-12T11:28:55.924Z,18.47
2022-09-12T11:31:23.995Z,18.53
2022-09-12T11:33:56.485Z,18.56
2022-09-12T11:36:33.286Z,18.58
2022-09-12T11:39:11.347Z,18.60
2022-09-12T11:41:43.462Z,18.61
2022-09-12T11:44:15.258Z,18.64
2022-09-12T11:46:48.643Z,18.72
2022-09-12T11:49:30.488Z,18.80
2022-09-12T11:53:06.615Z,18.84
2022-09-12T11:55:50.817Z,18.95
2022-09-12T11:58:25.148Z,19.03
2022-09-12T12:00:59.203Z,19.07
2022-09-12T12:03:40.662Z,19.07
2022-09-12T12:06:31.656Z,19.03
2022-09-12T12:09:00.412Z,18.95
2022-09-12T12:11:34.625Z,18.87
2022-09-12T12:14:06.428Z,18.83
2022-09-12T12:16:38.836Z,18.79
2022-09-12T12:19:15.767Z,18.74
2022-09-12T12:21:45.285Z,18.70
2022-09-12T12:24:16.010Z,18.67
2022-09-12T12:26:57.466Z,18.63
2022-09-12T12:29:31.476Z,18.61
2022-09-12T12:32:02.049Z,18.60
2022-09-12T12:34:42.128Z,18.60
2022-09-12T12:37:25.635Z,18.62
2022-09-12T12:40:10.090Z,18.66
2022-09-12T12:42:38.331Z,18.70
2022-09-12T12:45:09.647Z,18.76
2022-09-12T12:47:37.890Z,18.83
2022-09-12T12:50:20.826Z,18.89
2022-09-12T12:53:03.121Z,18.95
2022-09-12T12:56:01.564Z,19.00
2022-09-12T12:58:38.459Z,19.03
2022-09-12T13:01:43.825Z,19.04
2022-09-12T13:04:20.129Z,19.07
2022-09-12T13:07:07.917Z,19.12
2022-09-12T13:09:44.693Z,19.16
2022-09-12T13:12:48.158Z,19.23
2022-09-12T13:15:39.655Z,19.31
2022-09-12T13:18:13.330Z,19.38
2022-09-12T13:21:23.247Z,19.40
2022-09-12T13:24:19.208Z,19.42
2022-09-12T13:26:48.283Z,19.39
2022-09-12T13:29:18.778Z,19.37
2022-09-12T13:31:51.895Z,19.34
2022-09-12T13:34:25.384Z,19.32
2022-09-12T13:37:22.891Z,19.29
2022-09-12T13:40:13.206Z,19.24
2022-09-12T13:42:44.470Z,19.21
2022-09-12T13:45:27.020Z,19.25
2022-09-12T13:49:18.249Z,19.29
2022-09-12T13:52:21.414Z,19.30
2022-09-12T13:55:25.373Z,19.29
2022-09-12T13:58:26.439Z,19.24
2022-09-12T14:01:12.075Z,19.27
2022-09-12T14:04:13.030Z,19.32
2022-09-12T14:06:50.154Z,19.34
2022-09-12T14:14:57.031Z,19.40
2022-09-12T14:17:40.191Z,19.45
2022-09-12T14:20:15.094Z,19.49
2022-09-12T14:22:44.412Z,19.49
2022-09-12T14:25:18.063Z,19.49
2022-09-12T14:27:52.678Z,19.49
2022-09-12T14:30:22.945Z,19.50
2022-09-12T14:33:18.843Z,19.52
2022-09-12T14:35:49.789Z,19.51
2022-09-12T14:38:17.781Z,19.51
2022-09-12T14:40:49.079Z,19.51
2022-09-12T14:43:27.952Z,19.51
2022-09-12T14:46:02.416Z,19.52
2022-09-12T14:48:34.785Z,19.53
2022-09-12T14:51:04.357Z,19.53
2022-09-12T14:53:35.099Z,19.51
2022-09-12T14:56:06.982Z,19.51
2022-09-12T14:58:35.708Z,19.47
2022-09-12T15:01:24.488Z,19.44
2022-09-12T15:03:55.787Z,19.47
2022-09-12T15:06:30.924Z,19.47
2022-09-12T15:09:13.783Z,19.45
2022-09-12T15:11:41.927Z,19.46
2022-09-12T15:14:14.300Z,19.46
2022-09-12T15:16:42.831Z,19.45
2022-09-12T15:19:10.954Z,19.44
2022-09-12T15:21:39.075Z,19.43
2022-09-12T15:24:09.368Z,19.40
2022-09-12T15:26:37.610Z,19.37
2022-09-12T15:29:05.765Z,19.33
2022-09-12T15:31:33.961Z,19.28
2022-09-12T15:34:02.700Z,19.23
2022-09-12T15:36:31.677Z,19.20
2022-09-12T15:38:59.806Z,19.14
2022-09-12T15:41:37.005Z,19.09
2022-09-12T15:44:08.377Z,19.03
2022-09-12T15:46:36.757Z,18.96
2022-09-12T15:49:05.003Z,18.89
2022-09-12T15:51:33.758Z,18.85
2022-09-12T15:54:04.878Z,18.81
2022-09-12T15:56:32.934Z,18.77
2022-09-12T15:59:01.050Z,18.73
2022-09-12T16:01:29.599Z,18.71
2022-09-12T16:03:58.012Z,18.69
2022-09-12T16:06:33.546Z,18.68
2022-09-12T16:09:16.880Z,18.64
2022-09-12T16:11:51.377Z,18.59
2022-09-12T16:14:20.103Z,18.56
2022-09-12T16:16:57.659Z,18.52
2022-09-12T16:19:25.935Z,18.47
2022-09-12T16:21:55.202Z,18.42
2022-09-12T16:24:42.808Z,18.39
2022-09-12T16:29:03.292Z,18.35
2022-09-12T16:30:39.707Z,18.29
2022-09-12T16:33:08.733Z,18.28
2022-09-12T16:35:39.575Z,18.27
2022-09-12T16:38:08.170Z,18.26
2022-09-12T16:40:36.516Z,18.26
2022-09-12T16:43:04.697Z,18.24
2022-09-12T16:45:33.070Z,18.24
2022-09-12T16:48:01.291Z,18.22
2022-09-12T16:50:30.476Z,18.19
2022-09-12T16:52:59.312Z,18.16
2022-09-12T16:55:32.241Z,18.11
2022-09-12T16:58:00.769Z,18.05
2022-09-12T17:00:28.929Z,17.99
2022-09-12T17:02:57.798Z,17.92
2022-09-12T17:05:27.882Z,17.85
2022-09-12T17:07:56.014Z,17.79
2022-09-12T17:10:24.144Z,17.75
2022-09-12T17:12:54.369Z,17.71
2022-09-12T17:15:22.512Z,17.69
2022-09-12T17:17:52.232Z,17.65
2022-09-12T17:20:20.226Z,17.63
2022-09-12T17:22:49.458Z,17.56
2022-09-12T17:25:17.649Z,17.51
2022-09-12T17:27:45.805Z,17.45
2022-09-12T17:30:13.894Z,17.40
2022-09-12T17:32:42.104Z,17.36
2022-09-12T17:35:11.482Z,17.32
2022-09-12T17:37:42.211Z,17.28
2022-09-12T17:40:10.801Z,17.24
2022-09-12T17:42:39.204Z,17.21
2022-09-12T17:45:08.061Z,17.20
2022-09-12T17:47:36.392Z,17.18
2022-09-12T17:50:30.234Z,17.15
2022-09-12T17:52:57.777Z,17.10
2022-09-12T17:55:29.618Z,17.05
2022-09-12T17:58:01.117Z,17.01
2022-09-12T18:00:49.425Z,16.96
2022-09-12T18:03:23.548Z,16.89
2022-09-12T18:06:02.016Z,16.84
2022-09-12T18:08:31.410Z,16.80
2022-09-12T18:11:05.778Z,16.77
2022-09-12T18:13:36.196Z,16.75
2022-09-12T18:16:09.867Z,16.72
2022-09-12T18:18:40.092Z,16.68
2022-09-12T18:21:10.738Z,16.63
2022-09-12T18:23:39.594Z,16.59
2022-09-12T18:26:10.921Z,16.55
2022-09-12T18:28:42.012Z,16.50
2022-09-12T18:32:02.896Z,16.47
2022-09-12T18:35:00.850Z,16.43
2022-09-12T18:37:38.137Z,16.39
2022-09-12T18:40:07.141Z,16.34
2022-09-12T18:42:40.995Z,16.28
2022-09-12T18:45:11.842Z,16.22
2022-09-12T18:47:52.380Z,16.18
2022-09-12T18:50:36.134Z,16.15
2022-09-12T18:53:04.557Z,16.14
2022-09-12T18:55:38.988Z,16.12
2022-09-12T18:58:15.719Z,16.10
2022-09-12T19:01:38.099Z,16.05
2022-09-12T19:04:09.164Z,15.98
2022-09-12T19:06:40.314Z,15.95
2022-09-12T19:09:10.175Z,15.92
2022-09-12T19:11:39.341Z,15.90
2022-09-12T19:14:08.028Z,15.87
2022-09-12T19:16:37.003Z,15.85
2022-09-12T19:19:05.962Z,15.85
2022-09-12T19:21:37.596Z,15.83
2022-09-12T19:24:12.636Z,15.79
2022-09-12T19:27:43.335Z,15.75
2022-09-12T19:30:12.747Z,15.68
2022-09-12T19:32:43.169Z,15.65
2022-09-12T19:38:21.343Z,15.59
2022-09-12T19:40:57.176Z,15.57
2022-09-12T19:43:26.625Z,15.54
2022-09-12T19:45:55.958Z,15.49
2022-09-12T19:48:24.856Z,15.47
2022-09-12T19:50:53.212Z,15.44
2022-09-12T19:53:21.499Z,15.42
2022-09-12T19:55:49.755Z,15.40
2022-09-12T19:58:18.000Z,15.38
2022-09-12T20:00:46.103Z,15.36
2022-09-12T20:03:14.246Z,15.33
2022-09-12T20:05:43.418Z,15.29
2022-09-12T20:08:11.973Z,15.25
2022-09-12T20:10:40.240Z,15.21
2022-09-12T20:13:08.919Z,15.17
2022-09-12T20:15:46.758Z,15.16
2022-09-12T20:18:14.972Z,15.14
2022-09-12T20:20:43.181Z,15.13
2022-09-12T20:23:11.899Z,15.11
2022-09-12T20:25:40.137Z,15.08
2022-09-12T20:28:08.277Z,15.04
2022-09-12T20:30:36.404Z,15.02
2022-09-12T20:33:04.640Z,14.98
2022-09-12T20:35:33.356Z,14.95
2022-09-12T20:38:04.682Z,14.93
2022-09-12T20:40:35.684Z,14.90
2022-09-12T20:43:05.470Z,14.86
2022-09-12T20:45:34.023Z,14.83
2022-09-12T20:48:02.413Z,14.79
2022-09-12T20:50:45.195Z,14.75
2022-09-12T20:53:13.675Z,14.74
2022-09-12T20:55:50.893Z,14.71
2022-09-12T20:58:23.468Z,14.68
2022-09-12T21:00:52.122Z,14.66
2022-09-12T21:03:20.677Z,14.64
2022-09-12T21:05:48.964Z,14.60
2022-09-12T21:08:18.822Z,14.55
2022-09-12T21:10:47.399Z,14.51
2022-09-12T21:13:17.516Z,14.48
2022-09-12T21:15:49.299Z,14.46
2022-09-12T21:18:35.990Z,14.45
2022-09-12T21:21:10.511Z,14.43
2022-09-12T21:24:06.470Z,14.43
2022-09-12T21:26:39.084Z,14.38
2022-09-12T21:29:33.999Z,14.33
2022-09-12T21:32:08.215Z,14.30
2022-09-12T21:34:38.292Z,14.28
2022-09-12T21:37:06.575Z,14.26
2022-09-12T21:39:34.850Z,14.24
2022-09-12T21:42:03.154Z,14.23
2022-09-12T21:44:31.443Z,14.21
2022-09-12T21:46:59.854Z,14.18
2022-09-12T21:49:28.750Z,14.15
2022-09-12T21:52:46.467Z,14.13
2022-09-12T21:55:15.481Z,14.10
2022-09-12T21:57:44.016Z,14.10
2022-09-12T22:00:39.057Z,14.09
2022-09-12T22:03:11.294Z,14.06
2022-09-12T22:05:52.347Z,14.02
2022-09-12T22:08:55.310Z,13.97
2022-09-12T22:12:04.510Z,13.94
2022-09-12T22:14:37.690Z,13.90
2022-09-12T22:17:10.318Z,13.89
2022-09-12T22:19:40.791Z,13.89
2022-09-12T22:22:30.119Z,13.88
2022-09-12T22:24:59.086Z,13.87
2022-09-12T22:27:27.931Z,13.85
2022-09-12T22:29:58.561Z,13.84
2022-09-12T22:32:26.874Z,13.85
2022-09-12T22:34:54.963Z,13.84
2022-09-12T22:37:23.072Z,13.85
2022-09-12T22:39:51.317Z,13.84
2022-09-12T22:42:19.390Z,13.84
2022-09-12T22:44:47.600Z,13.83
2022-09-12T22:47:15.852Z,13.81
2022-09-12T22:49:44.208Z,13.80
2022-09-12T22:52:14.682Z,13.79
2022-09-12T22:54:43.748Z,13.79
2022-09-12T22:57:12.317Z,13.78
2022-09-12T22:59:41.071Z,13.76
2022-09-12T23:02:09.848Z,13.75
2022-09-12T23:04:38.052Z,13.72
2022-09-12T23:07:06.129Z,13.71
2022-09-12T23:09:35.587Z,13.71
2022-09-12T23:12:26.403Z,13.72
2022-09-12T23:14:54.729Z,13.72
2022-09-12T23:17:22.947Z,13.72
2022-09-12T23:19:51.065Z,13.71
2022-09-12T23:22:19.252Z,13.72
2022-09-12T23:24:47.414Z,13.72
2022-09-12T23:27:15.588Z,13.74
2022-09-12T23:29:43.857Z,13.75
2022-09-12T23:32:12.191Z,13.77
2022-09-12T23:34:40.239Z,13.81
2022-09-12T23:37:08.396Z,13.81
2022-09-12T23:39:36.419Z,13.82
2022-09-12T23:42:04.748Z,13.82
2022-09-12T23:44:32.950Z,13.81
2022-09-12T23:47:01.151Z,13.81
2022-09-12T23:49:29.201Z,13.81
2022-09-12T23:51:57.294Z,13.82
2022-09-12T23:54:25.504Z,13.84
2022-09-12T23:56:53.846Z,13.85
2022-09-12T23:59:21.947Z,13.86
